Time;durP1;ratioP1;P1;durP2;ratioP2;P2;SDS_P1;SDS_P2;PMS_P1;PMS_P2;Temp;Humidity;BMP_temperature;BMP_pressure;BME280_temperature;BME280_humidity;BME280_pressure;Samples;Min_cycle;Max_cycle;Signal;HPM_P1;HPM_P2
2023/06/30 00:02:01;;;;;;;8.70;3.13;;;;;;;15.49;100.00;101333.06;5229570;28;20021;-70
2023/06/30 00:04:33;;;;;;;11.13;3.80;;;;;;;15.55;100.00;101323.59;5224323;28;21727;-70
2023/06/30 00:07:05;;;;;;;6.82;2.65;;;;;;;15.46;100.00;101338.72;5234289;28;20068;-69
2023/06/30 00:09:37;;;;;;;8.43;2.88;;;;;;;15.40;100.00;101333.91;5227907;28;20021;-70
2023/06/30 00:12:09;;;;;;;11.55;3.17;;;;;;;15.34;100.00;101331.75;5229466;28;20033;-70
2023/06/30 00:14:40;;;;;;;8.32;3.25;;;;;;;15.46;100.00;101333.34;5219133;28;20022;-70
2023/06/30 00:17:12;;;;;;;7.28;3.33;;;;;;;15.39;100.00;101337.56;5230840;28;20540;-70
2023/06/30 00:19:43;;;;;;;6.78;3.10;;;;;;;15.31;100.00;101335.56;5229035;28;20029;-70
2023/06/30 00:22:15;;;;;;;7.78;3.42;;;;;;;15.27;100.00;101334.97;5226687;28;20026;-70
2023/06/30 00:24:48;;;;;;;8.70;3.20;;;;;;;15.28;100.00;101331.31;5234503;28;20029;-69
2023/06/30 00:27:20;;;;;;;7.68;2.55;;;;;;;15.23;100.00;101324.66;5248369;28;20032;-70
2023/06/30 00:29:51;;;;;;;7.47;3.33;;;;;;;15.18;100.00;101325.03;5239038;28;20036;-69
2023/06/30 00:32:23;;;;;;;7.15;2.92;;;;;;;15.18;100.00;101322.34;5242266;28;20037;-69
2023/06/30 00:34:54;;;;;;;6.15;2.83;;;;;;;15.13;100.00;101316.56;5228857;28;20096;-70
2023/06/30 00:37:26;;;;;;;9.32;3.40;;;;;;;15.07;100.00;101317.94;5239452;28;20036;-70
2023/06/30 00:39:57;;;;;;;8.88;3.00;;;;;;;15.06;100.00;101318.91;5229833;28;20038;-70
2023/06/30 00:42:29;;;;;;;9.93;3.17;;;;;;;15.05;100.00;101316.34;5234206;28;20024;-70
2023/06/30 00:45:01;;;;;;;9.80;2.97;;;;;;;15.06;100.00;101312.69;5226842;28;20030;-70
2023/06/30 00:47:32;;;;;;;6.45;2.58;;;;;;;14.96;100.00;101318.03;5228049;28;20037;-69
2023/06/30 00:50:04;;;;;;;9.80;3.47;;;;;;;14.88;100.00;101313.31;5235251;28;20037;-70
2023/06/30 00:52:36;;;;;;;7.95;3.10;;;;;;;14.88;100.00;101310.63;5227939;28;20017;-69
2023/06/30 00:55:08;;;;;;;9.73;3.10;;;;;;;14.79;100.00;101318.66;5222988;28;20448;-70
2023/06/30 00:57:39;;;;;;;7.65;3.20;;;;;;;14.83;100.00;101320.94;5249011;28;20040;-70
2023/06/30 01:00:14;;;;;;;9.27;3.38;;;;;;;14.77;100.00;101318.78;5230517;28;20079;-70
2023/06/30 01:02:48;;;;;;;8.98;3.17;;;;;;;14.86;100.00;101319.78;5232693;28;20399;-69
2023/06/30 01:05:34;;;;;;;9.05;3.40;;;;;;;14.82;100.00;101321.94;5231084;28;20048;-69
2023/06/30 01:08:16;;;;;;;7.70;3.60;;;;;;;14.85;100.00;101318.97;5228386;28;20059;-70
2023/06/30 01:10:49;;;;;;;12.18;3.65;;;;;;;14.83;100.00;101318.25;5229359;28;20026;-70
2023/06/30 01:13:22;;;;;;;12.68;3.80;;;;;;;14.89;100.00;101319.53;5233946;28;20056;-70
2023/06/30 01:15:56;;;;;;;6.97;2.80;;;;;;;14.86;100.00;101322.47;5230369;28;20037;-70
2023/06/30 01:18:36;;;;;;;8.30;2.95;;;;;;;14.82;100.00;101326.44;5232073;28;20021;-69
2023/06/30 01:21:13;;;;;;;8.02;2.97;;;;;;;14.77;100.00;101328.69;5245579;28;20067;-70
2023/06/30 01:24:04;;;;;;;5.90;2.70;;;;;;;14.82;100.00;101323.75;5236777;28;20065;-70
2023/06/30 01:26:37;;;;;;;6.50;2.80;;;;;;;14.73;100.00;101325.41;5237576;28;20047;-70
2023/06/30 01:29:10;;;;;;;8.52;2.83;;;;;;;14.74;100.00;101326.25;5236931;28;20033;-69
2023/06/30 01:31:43;;;;;;;7.95;3.33;;;;;;;14.79;100.00;101329.41;5229199;28;20041;-70
2023/06/30 01:34:15;;;;;;;9.57;3.63;;;;;;;14.75;100.00;101327.97;5236838;28;20100;-70
2023/06/30 01:36:47;;;;;;;7.18;2.70;;;;;;;14.70;100.00;101328.34;5237402;28;20162;-70
2023/06/30 01:39:19;;;;;;;10.32;3.22;;;;;;;14.68;100.00;101323.09;5229226;28;20022;-69
2023/06/30 01:41:50;;;;;;;9.90;3.35;;;;;;;14.73;100.00;101320.03;5223091;28;20039;-70
2023/06/30 01:44:22;;;;;;;10.45;3.08;;;;;;;14.65;100.00;101311.75;5226397;28;20492;-70
2023/06/30 01:46:54;;;;;;;10.35;3.22;;;;;;;14.60;100.00;101306.81;5233858;28;20493;-70
2023/06/30 01:49:27;;;;;;;8.80;2.92;;;;;;;14.56;100.00;101305.34;5233677;28;20037;-70
2023/06/30 01:51:58;;;;;;;10.90;3.00;;;;;;;14.50;100.00;101305.88;5228847;28;20032;-70
2023/06/30 01:54:30;;;;;;;10.23;2.63;;;;;;;14.45;100.00;101303.56;5215840;28;20429;-70
2023/06/30 01:57:02;;;;;;;8.98;3.15;;;;;;;14.40;100.00;101307.63;5228022;28;20558;-69
2023/06/30 01:59:33;;;;;;;6.28;3.20;;;;;;;14.36;100.00;101300.81;5235413;28;20029;-70
2023/06/30 02:02:05;;;;;;;6.60;2.75;;;;;;;14.34;100.00;101297.41;5238150;28;20110;-70
2023/06/30 02:04:36;;;;;;;11.15;3.20;;;;;;;14.28;100.00;101296.94;5220052;28;20030;-69
2023/06/30 02:07:08;;;;;;;11.82;2.90;;;;;;;14.19;100.00;101295.06;5233082;28;20253;-69
2023/06/30 02:09:39;;;;;;;6.68;3.15;;;;;;;14.17;100.00;101299.72;5236802;28;20079;-70
2023/06/30 02:12:13;;;;;;;9.10;3.30;;;;;;;14.34;100.00;101297.41;5228820;28;20030;-70
2023/06/30 02:14:44;;;;;;;9.02;3.33;;;;;;;14.09;100.00;101297.69;5233389;28;20028;-70
2023/06/30 02:17:16;;;;;;;7.28;3.05;;;;;;;14.09;100.00;101296.81;5237326;28;20033;-70
2023/06/30 02:19:47;;;;;;;10.98;3.90;;;;;;;14.04;100.00;101302.56;5237927;28;20279;-69
2023/06/30 02:22:19;;;;;;;8.05;3.83;;;;;;;14.09;100.00;101302.16;5233430;28;20025;-70
2023/06/30 02:24:50;;;;;;;8.32;3.33;;;;;;;14.07;100.00;101304.97;5228598;28;20167;-69
2023/06/30 02:27:22;;;;;;;11.88;3.80;;;;;;;14.02;100.00;101309.91;5230445;28;20381;-70
2023/06/30 02:29:54;;;;;;;8.65;3.28;;;;;;;14.08;100.00;101304.00;5237082;28;20040;-70
2023/06/30 02:32:25;;;;;;;10.52;3.70;;;;;;;14.08;100.00;101305.84;5233865;28;20033;-69
2023/06/30 02:34:57;;;;;;;14.77;3.47;;;;;;;14.07;100.00;101307.66;5234803;28;20052;-70
2023/06/30 02:37:28;;;;;;;11.93;3.67;;;;;;;14.13;100.00;101314.34;5251511;28;20498;-69
2023/06/30 02:39:59;;;;;;;8.35;3.50;;;;;;;14.06;100.00;101323.91;5245423;28;20273;-69
2023/06/30 02:42:31;;;;;;;10.55;4.68;;;;;;;14.00;100.00;101332.44;5232942;28;20057;-69
2023/06/30 02:45:03;;;;;;;8.93;3.35;;;;;;;14.04;100.00;101332.09;5242271;28;20472;-70
2023/06/30 02:47:35;;;;;;;10.48;3.92;;;;;;;14.02;100.00;101333.22;5247005;28;20128;-69
2023/06/30 02:50:07;;;;;;;10.50;3.65;;;;;;;13.87;100.00;101336.16;5234092;28;20108;-70
2023/06/30 02:52:38;;;;;;;8.18;3.50;;;;;;;13.90;100.00;101333.25;5234226;28;20075;-70
2023/06/30 02:55:10;;;;;;;7.32;3.58;;;;;;;13.86;100.00;101334.44;5237444;28;20032;-70
2023/06/30 02:57:41;;;;;;;10.00;4.13;;;;;;;13.91;100.00;101334.94;5230147;28;20369;-70
2023/06/30 03:00:13;;;;;;;8.18;3.83;;;;;;;13.73;100.00;101331.09;5234699;28;20033;-69
2023/06/30 03:02:44;;;;;;;9.82;4.00;;;;;;;13.64;100.00;101338.06;5236423;28;20051;-70
2023/06/30 03:05:16;;;;;;;9.55;4.15;;;;;;;13.67;100.00;101342.31;5235369;28;20025;-70
2023/06/30 03:07:47;;;;;;;10.30;4.35;;;;;;;13.61;100.00;101338.28;5228062;28;20049;-70
2023/06/30 03:10:19;;;;;;;11.05;3.90;;;;;;;13.57;100.00;101338.69;5247846;28;20562;-69
2023/06/30 03:12:51;;;;;;;9.30;4.53;;;;;;;13.54;100.00;101337.13;5238151;28;20474;-70
2023/06/30 03:15:23;;;;;;;10.20;4.95;;;;;;;13.59;100.00;101336.72;5230037;28;20368;-68
2023/06/30 03:17:55;;;;;;;8.30;4.40;;;;;;;13.52;100.00;101329.19;5228440;28;20434;-70
2023/06/30 03:20:26;;;;;;;13.85;5.10;;;;;;;13.51;100.00;101338.19;5228401;28;20069;-70
2023/06/30 03:22:58;;;;;;;10.85;5.03;;;;;;;13.49;100.00;101326.75;5234414;28;20025;-70
2023/06/30 03:25:29;;;;;;;10.90;4.90;;;;;;;13.50;100.00;101324.91;5232279;28;20457;-70
2023/06/30 03:28:00;;;;;;;8.32;4.53;;;;;;;13.39;100.00;101324.94;5238402;28;20439;-69
2023/06/30 03:30:32;;;;;;;12.07;4.57;;;;;;;13.30;100.00;101322.00;5223945;28;20033;-69
2023/06/30 03:33:03;;;;;;;11.52;5.25;;;;;;;13.26;100.00;101322.38;5233077;28;20018;-69
2023/06/30 03:35:35;;;;;;;8.75;4.72;;;;;;;13.37;100.00;101322.38;5235096;28;20087;-69
2023/06/30 03:38:06;;;;;;;13.02;5.07;;;;;;;13.26;100.00;101327.72;5230095;28;20043;-69
2023/06/30 03:40:38;;;;;;;10.13;5.00;;;;;;;13.26;100.00;101320.53;5229092;28;20049;-69
2023/06/30 03:43:10;;;;;;;9.90;4.85;;;;;;;13.23;100.00;101319.91;5235461;28;20068;-69
2023/06/30 03:45:41;;;;;;;13.40;5.15;;;;;;;13.28;100.00;101317.72;5236355;28;20071;-69
2023/06/30 03:48:13;;;;;;;10.38;4.63;;;;;;;13.19;100.00;101322.00;5231320;28;20033;-69
2023/06/30 03:50:45;;;;;;;12.32;5.40;;;;;;;13.24;100.00;101317.13;5217732;28;20017;-69
2023/06/30 03:53:16;;;;;;;11.60;5.13;;;;;;;13.21;100.00;101314.72;5232206;28;20028;-69
2023/06/30 03:55:47;;;;;;;11.52;4.97;;;;;;;13.22;100.00;101311.03;5231025;28;20379;-69
2023/06/30 03:58:19;;;;;;;9.55;5.00;;;;;;;13.14;100.00;101317.00;5222948;28;20377;-69
2023/06/30 04:00:50;;;;;;;11.70;5.15;;;;;;;13.08;100.00;101316.66;5231225;28;20094;-70
2023/06/30 04:03:22;;;;;;;10.73;5.43;;;;;;;13.11;100.00;101313.72;5235705;28;20041;-70
2023/06/30 04:05:54;;;;;;;11.65;4.82;;;;;;;12.95;100.00;101316.78;5227805;28;20029;-68
2023/06/30 04:08:25;;;;;;;12.63;5.05;;;;;;;12.97;100.00;101313.97;5235547;28;20336;-69
2023/06/30 04:10:56;;;;;;;11.30;4.90;;;;;;;12.95;100.00;101325.66;5235216;28;20136;-68
2023/06/30 04:13:28;;;;;;;10.73;5.20;;;;;;;13.01;100.00;101329.69;5235474;28;20076;-69
2023/06/30 04:15:59;;;;;;;12.13;5.45;;;;;;;13.04;100.00;101320.53;5240540;28;20471;-68
2023/06/30 04:18:30;;;;;;;11.20;5.43;;;;;;;12.97;100.00;101322.00;5230893;28;20212;-68
2023/06/30 04:21:02;;;;;;;10.93;5.18;;;;;;;12.94;100.00;101326.66;5228292;28;20377;-68
2023/06/30 04:23:33;;;;;;;10.52;5.30;;;;;;;12.93;100.00;101322.25;5225305;28;20025;-69
2023/06/30 04:26:05;;;;;;;12.90;5.90;;;;;;;12.90;100.00;101335.88;5234704;28;20121;-69
2023/06/30 04:28:36;;;;;;;10.10;5.40;;;;;;;12.94;100.00;101325.78;5227015;28;20026;-69
2023/06/30 04:31:08;;;;;;;14.25;5.22;;;;;;;12.88;100.00;101323.56;5228083;28;20036;-69
2023/06/30 04:33:39;;;;;;;12.30;5.70;;;;;;;12.94;100.00;101323.09;5231539;28;20028;-68
2023/06/30 04:36:10;;;;;;;9.60;5.40;;;;;;;12.95;100.00;101327.47;5233621;28;20127;-68
2023/06/30 04:38:44;;;;;;;10.88;5.45;;;;;;;12.95;100.00;101322.13;5236384;28;20041;-69
2023/06/30 04:41:16;;;;;;;8.73;5.03;;;;;;;12.95;100.00;101317.63;5233866;28;20309;-69
2023/06/30 04:43:47;;;;;;;10.65;5.53;;;;;;;12.94;100.00;101317.72;5237826;28;20027;-68
2023/06/30 04:46:19;;;;;;;11.15;6.07;;;;;;;13.13;100.00;101320.69;5224197;28;20087;-69
2023/06/30 04:48:51;;;;;;;11.35;6.18;;;;;;;13.01;100.00;101323.47;5230266;28;20455;-68
2023/06/30 04:51:24;;;;;;;11.77;5.90;;;;;;;13.00;100.00;101322.63;5231925;28;20127;-69
2023/06/30 04:53:55;;;;;;;11.52;5.50;;;;;;;13.00;100.00;101322.63;5228612;28;20022;-70
2023/06/30 04:56:27;;;;;;;11.50;5.90;;;;;;;13.06;100.00;101331.97;5235663;28;20040;-70
2023/06/30 04:58:58;;;;;;;13.32;6.40;;;;;;;13.06;100.00;101326.63;5232642;28;20029;-68
2023/06/30 05:01:31;;;;;;;12.32;5.95;;;;;;;13.05;100.00;101323.09;5231990;28;20565;-69
2023/06/30 05:04:03;;;;;;;13.32;5.82;;;;;;;13.10;100.00;101326.28;5232635;28;20056;-69
2023/06/30 05:06:34;;;;;;;10.55;5.47;;;;;;;13.12;100.00;101320.78;5229313;28;20053;-68
2023/06/30 05:09:06;;;;;;;12.20;5.70;;;;;;;13.14;100.00;101322.38;5231979;28;20117;-68
2023/06/30 05:11:37;;;;;;;12.63;5.82;;;;;;;13.19;100.00;101322.00;5236006;28;20063;-69
2023/06/30 05:14:09;;;;;;;18.35;6.03;;;;;;;13.20;100.00;101321.03;5230935;28;20033;-69
2023/06/30 05:16:40;;;;;;;13.38;6.15;;;;;;;13.22;100.00;101321.75;5226545;28;20108;-68
2023/06/30 05:19:12;;;;;;;17.60;6.50;;;;;;;13.38;100.00;101316.03;5234507;28;20044;-69
2023/06/30 05:21:43;;;;;;;9.95;5.50;;;;;;;13.30;100.00;101318.50;5224559;28;20084;-68
2023/06/30 05:24:14;;;;;;;10.05;5.38;;;;;;;13.30;100.00;101327.38;5231213;28;20491;-68
2023/06/30 05:26:46;;;;;;;10.50;5.22;;;;;;;13.35;100.00;101321.66;5229556;28;20032;-70
2023/06/30 05:29:17;;;;;;;11.77;6.10;;;;;;;13.37;100.00;101321.53;5233379;28;20028;-69
2023/06/30 05:31:49;;;;;;;11.68;5.45;;;;;;;13.49;100.00;101317.84;5231884;28;20094;-70
2023/06/30 05:34:20;;;;;;;11.13;5.43;;;;;;;13.62;100.00;101315.88;5232323;28;20080;-69
2023/06/30 05:36:51;;;;;;;9.07;4.88;;;;;;;13.58;100.00;101325.16;5240573;28;20029;-70
2023/06/30 05:39:23;;;;;;;9.20;4.90;;;;;;;13.62;100.00;101315.88;5226314;28;20033;-69
2023/06/30 05:41:54;;;;;;;8.43;4.47;;;;;;;13.66;100.00;101320.00;5233346;28;20503;-69
2023/06/30 05:44:26;;;;;;;9.77;5.00;;;;;;;13.69;100.00;101317.09;5230019;28;20068;-68
2023/06/30 05:46:57;;;;;;;10.80;5.18;;;;;;;13.80;100.00;101320.72;5232764;28;20511;-69
2023/06/30 05:49:28;;;;;;;11.10;5.18;;;;;;;13.80;100.00;101321.53;5227639;28;20030;-69
2023/06/30 05:52:00;;;;;;;9.55;5.13;;;;;;;13.84;100.00;101323.00;5229869;28;20075;-68
2023/06/30 05:54:31;;;;;;;9.93;5.07;;;;;;;13.89;100.00;101320.78;5232380;28;20361;-70
2023/06/30 05:57:03;;;;;;;11.88;5.60;;;;;;;13.95;100.00;101323.94;5225971;28;20053;-70
2023/06/30 05:59:34;;;;;;;9.85;5.07;;;;;;;14.00;100.00;101316.34;5226983;28;20120;-69
2023/06/30 06:02:06;;;;;;;11.52;5.18;;;;;;;14.17;100.00;101318.50;5238479;28;20502;-70
2023/06/30 06:04:38;;;;;;;9.65;4.53;;;;;;;14.16;100.00;101311.41;5221563;28;20345;-68
2023/06/30 06:07:09;;;;;;;8.05;4.30;;;;;;;14.22;100.00;101316.25;5235613;28;20049;-70
2023/06/30 06:09:41;;;;;;;8.23;4.28;;;;;;;14.30;100.00;101308.44;5234251;28;20029;-70
2023/06/30 06:12:12;;;;;;;10.52;5.13;;;;;;;14.44;100.00;101309.06;5249935;28;20353;-70
2023/06/30 06:14:43;;;;;;;9.15;4.15;;;;;;;14.51;100.00;101311.09;5228970;28;20040;-69
2023/06/30 06:17:15;;;;;;;7.82;4.35;;;;;;;14.59;100.00;101306.94;5234876;28;20116;-70
2023/06/30 06:19:46;;;;;;;9.85;4.30;;;;;;;14.68;100.00;101312.34;5237059;28;20060;-70
2023/06/30 06:22:17;;;;;;;8.52;4.18;;;;;;;14.76;100.00;101309.00;5238514;28;20029;-70
2023/06/30 06:24:49;;;;;;;8.60;3.85;;;;;;;14.85;100.00;101316.28;5237358;28;20056;-70
2023/06/30 06:27:20;;;;;;;8.35;3.97;;;;;;;14.96;100.00;101315.34;5236957;28;20506;-70
2023/06/30 06:29:52;;;;;;;7.82;3.97;;;;;;;15.02;100.00;101322.84;5230673;28;20521;-67
2023/06/30 06:32:23;;;;;;;8.05;3.60;;;;;;;15.09;100.00;101321.34;5234457;28;20024;-67
2023/06/30 06:34:54;;;;;;;7.93;3.75;;;;;;;15.22;100.00;101315.72;5238334;28;20474;-69
2023/06/30 06:37:26;;;;;;;8.80;3.70;;;;;;;15.27;100.00;101328.75;5230454;28;20022;-69
2023/06/30 06:39:57;;;;;;;8.02;3.40;;;;;;;15.37;100.00;101332.31;5239713;28;20017;-69
2023/06/30 06:42:29;;;;;;;6.82;3.05;;;;;;;15.43;100.00;101326.38;5237106;28;20053;-70
2023/06/30 06:45:00;;;;;;;6.10;2.80;;;;;;;15.54;100.00;101328.13;5238690;28;20025;-69
2023/06/30 06:48:09;;;;;;;7.25;2.70;;;;;;;15.73;100.00;101330.03;5229573;28;20036;-69
2023/06/30 06:50:41;;;;;;;7.50;2.95;;;;;;;15.83;100.00;101316.59;5237453;28;20018;-69
2023/06/30 06:53:20;;;;;;;5.63;2.30;;;;;;;15.92;100.00;101309.53;5230029;28;20524;-69
2023/06/30 06:55:53;;;;;;;5.05;2.08;;;;;;;16.05;100.00;101310.94;5218745;28;20034;-70
2023/06/30 06:58:27;;;;;;;8.07;2.15;;;;;;;16.18;100.00;101307.94;5236197;28;20026;-69
2023/06/30 07:00:59;;;;;;;6.40;2.10;;;;;;;16.25;100.00;101301.00;5231705;28;20112;-69
2023/06/30 07:03:31;;;;;;;5.30;2.30;;;;;;;16.29;100.00;101308.81;5231512;28;20033;-70
2023/06/30 07:06:03;;;;;;;8.48;2.20;;;;;;;16.42;100.00;101314.75;5229169;28;20045;-69
2023/06/30 07:08:38;;;;;;;4.45;1.38;;;;;;;16.50;100.00;101314.03;5233857;28;20475;-70
2023/06/30 07:11:10;;;;;;;5.05;1.73;;;;;;;16.66;100.00;101311.56;5229601;28;20022;-69
2023/06/30 07:13:42;;;;;;;6.68;1.77;;;;;;;16.62;100.00;101310.16;5224964;28;20187;-70
2023/06/30 07:16:17;;;;;;;5.35;1.90;;;;;;;16.71;100.00;101319.22;5218062;28;20022;-69
2023/06/30 07:18:49;;;;;;;5.53;1.90;;;;;;;16.80;100.00;101319.19;5225136;28;20034;-69
2023/06/30 07:21:20;;;;;;;4.15;1.52;;;;;;;16.94;100.00;101317.06;5222416;28;20492;-70
2023/06/30 07:23:52;;;;;;;5.18;1.60;;;;;;;17.04;100.00;101312.47;5220643;28;20524;-70
2023/06/30 07:26:23;;;;;;;6.55;1.63;;;;;;;17.08;100.00;101313.03;5223172;28;20026;-70
2023/06/30 07:28:55;;;;;;;5.18;1.63;;;;;;;17.12;100.00;101317.13;5235700;28;20037;-70
2023/06/30 07:31:30;;;;;;;5.22;1.55;;;;;;;17.21;100.00;101317.06;5231512;28;20021;-69
2023/06/30 07:34:02;;;;;;;4.07;1.50;;;;;;;17.34;100.00;101311.34;5234055;28;20065;-70
2023/06/30 07:36:34;;;;;;;5.50;1.55;;;;;;;17.34;100.00;101322.13;5235236;28;20025;-70
2023/06/30 07:39:06;;;;;;;4.85;1.42;;;;;;;17.41;100.00;101314.25;5229934;28;20036;-69
2023/06/30 07:41:37;;;;;;;4.25;1.50;;;;;;;17.58;100.00;101315.31;5229742;28;20017;-70
2023/06/30 07:44:11;;;;;;;3.60;1.10;;;;;;;17.62;100.00;101314.00;5230484;28;20105;-70
2023/06/30 07:46:43;;;;;;;5.57;1.48;;;;;;;17.71;100.00;101315.78;5235828;28;20030;-70
2023/06/30 07:49:14;;;;;;;4.93;1.65;;;;;;;17.82;100.00;101315.56;5230175;28;20032;-70
2023/06/30 07:51:46;;;;;;;5.22;1.92;;;;;;;17.89;100.00;101310.47;5240203;28;20386;-70
2023/06/30 07:54:18;;;;;;;3.45;1.30;;;;;;;18.02;100.00;101313.63;5243086;28;20026;-70
2023/06/30 07:56:49;;;;;;;5.45;1.25;;;;;;;18.04;100.00;101302.63;5232992;28;20358;-70
2023/06/30 07:59:21;;;;;;;3.92;1.40;;;;;;;18.15;100.00;101309.66;5241543;28;20391;-70
2023/06/30 08:01:52;;;;;;;3.97;1.33;;;;;;;18.15;100.00;101309.66;5230605;28;20129;-70
2023/06/30 08:04:24;;;;;;;5.03;1.33;;;;;;;18.29;100.00;101310.97;5237965;28;20055;-70
2023/06/30 08:06:55;;;;;;;4.70;1.25;;;;;;;18.26;100.00;101312.13;5233588;28;20056;-70
2023/06/30 08:09:26;;;;;;;4.85;1.70;;;;;;;18.35;100.00;101313.03;5222586;28;20061;-70
2023/06/30 08:11:58;;;;;;;5.30;1.55;;;;;;;18.40;100.00;101316.13;5239983;28;20030;-71
2023/06/30 08:14:29;;;;;;;3.85;1.40;;;;;;;18.42;100.00;101314.94;5229335;28;20025;-70
2023/06/30 08:17:01;;;;;;;5.10;1.70;;;;;;;18.57;100.00;101308.97;5230990;28;20034;-70
2023/06/30 08:19:33;;;;;;;5.03;1.67;;;;;;;18.60;100.00;101314.91;5231811;28;20025;-71
2023/06/30 08:22:04;;;;;;;4.03;1.27;;;;;;;18.70;100.00;101312.09;5237439;28;20021;-70
2023/06/30 08:24:36;;;;;;;3.72;1.45;;;;;;;18.79;100.00;101308.44;5233141;28;20021;-70
2023/06/30 08:27:07;;;;;;;5.55;1.55;;;;;;;18.99;100.00;101311.78;5234400;28;20037;-70
2023/06/30 08:29:39;;;;;;;8.18;2.55;;;;;;;18.99;100.00;101298.28;5238995;28;20036;-70
2023/06/30 08:32:11;;;;;;;7.50;1.23;;;;;;;19.01;100.00;101303.53;5238326;28;20689;-71
2023/06/30 08:34:42;;;;;;;4.28;1.73;;;;;;;19.09;100.00;101303.56;5240985;28;20024;-71
2023/06/30 08:37:14;;;;;;;4.85;1.40;;;;;;;19.15;100.00;101302.06;5240096;28;20120;-70
2023/06/30 08:39:45;;;;;;;5.15;1.70;;;;;;;19.24;100.00;101300.25;5242359;28;20025;-70
2023/06/30 08:42:22;;;;;;;4.53;1.65;;;;;;;19.28;100.00;101302.44;5235532;28;20052;-71
2023/06/30 08:44:54;;;;;;;5.70;1.63;;;;;;;19.39;100.00;101295.91;5244575;28;20029;-70
2023/06/30 08:47:28;;;;;;;4.75;1.50;;;;;;;19.47;100.00;101286.97;5228135;28;20048;-71
2023/06/30 08:50:00;;;;;;;7.47;1.85;;;;;;;19.45;100.00;101283.56;5248429;28;20056;-70
2023/06/30 08:52:33;;;;;;;4.30;1.50;;;;;;;19.65;100.00;101286.81;5236851;28;20388;-70
2023/06/30 08:55:08;;;;;;;5.20;1.52;;;;;;;19.78;100.00;101289.94;5253305;28;20123;-71
2023/06/30 08:57:41;;;;;;;5.63;1.90;;;;;;;19.82;100.00;101276.91;5244370;28;20025;-70
2023/06/30 09:00:13;;;;;;;5.07;1.33;;;;;;;19.92;100.00;101283.00;5233147;28;20037;-71
2023/06/30 09:02:45;;;;;;;5.10;1.48;;;;;;;19.98;100.00;101276.91;5246984;28;20033;-71
2023/06/30 09:05:16;;;;;;;3.38;1.50;;;;;;;20.01;100.00;101281.16;5239762;28;20509;-70
2023/06/30 09:07:54;;;;;;;5.55;1.83;;;;;;;20.06;100.00;101273.34;5241591;28;20690;-70
2023/06/30 09:10:36;;;;;;;4.63;1.80;;;;;;;20.18;100.00;101278.25;5228853;28;20042;-71
2023/06/30 09:13:10;;;;;;;4.95;2.13;;;;;;;20.11;100.00;101269.13;5234157;28;20084;-71
2023/06/30 09:15:41;;;;;;;5.30;1.80;;;;;;;20.33;100.00;101277.59;5235458;28;20024;-70
2023/06/30 09:18:13;;;;;;;3.72;1.60;;;;;;;20.34;100.00;101273.84;5233360;28;20113;-71
2023/06/30 09:20:45;;;;;;;4.03;1.70;;;;;;;20.42;100.00;101275.69;5221927;28;20029;-71
2023/06/30 09:23:17;;;;;;;4.72;1.80;;;;;;;20.53;100.00;101276.19;5223452;28;20036;-71
2023/06/30 09:25:48;;;;;;;5.53;1.95;;;;;;;20.61;100.00;101274.53;5223285;28;20022;-71
2023/06/30 09:28:19;;;;;;;4.10;1.55;;;;;;;20.67;100.00;101271.97;5236877;28;20060;-71
2023/06/30 09:30:51;;;;;;;4.35;1.50;;;;;;;20.73;100.00;101278.56;5222974;28;20175;-70
2023/06/30 09:33:23;;;;;;;4.75;1.52;;;;;;;20.74;100.00;101266.69;5229311;28;20372;-70
2023/06/30 09:35:56;;;;;;;4.97;1.60;;;;;;;20.67;100.00;101268.41;5228714;28;20022;-71
2023/06/30 09:38:29;;;;;;;6.07;2.03;;;;;;;20.74;100.00;101267.53;5229491;28;20025;-71
2023/06/30 09:41:03;;;;;;;5.87;1.33;;;;;;;20.80;100.00;101271.41;5226973;28;20033;-71
2023/06/30 09:43:35;;;;;;;5.65;2.03;;;;;;;20.84;100.00;101266.50;5228977;28;20091;-71
2023/06/30 09:46:06;;;;;;;4.57;1.73;;;;;;;20.88;100.00;101255.13;5233002;28;20029;-71
2023/06/30 09:48:43;;;;;;;5.70;1.67;;;;;;;20.96;100.00;101259.69;5240673;28;20602;-70
2023/06/30 09:51:20;;;;;;;4.40;1.50;;;;;;;21.00;100.00;101263.72;5241351;28;20064;-71
2023/06/30 09:53:53;;;;;;;4.10;1.50;;;;;;;20.95;100.00;101264.22;5229621;28;20076;-71
2023/06/30 09:56:26;;;;;;;3.50;1.50;;;;;;;20.97;100.00;101257.81;5224390;28;20191;-71
2023/06/30 09:58:58;;;;;;;3.97;1.40;;;;;;;21.04;100.00;101262.34;5230104;28;20031;-71
2023/06/30 10:01:31;;;;;;;4.43;1.50;;;;;;;21.06;100.00;101264.91;5234308;28;20048;-71
2023/06/30 10:04:02;;;;;;;5.03;1.67;;;;;;;21.03;100.00;101260.66;5227921;28;20045;-70
2023/06/30 10:06:36;;;;;;;6.53;1.50;;;;;;;21.04;100.00;101256.94;5235010;28;20053;-71
2023/06/30 10:09:08;;;;;;;4.65;1.50;;;;;;;21.13;100.00;101261.31;5247641;28;20041;-70
2023/06/30 10:11:43;;;;;;;5.40;2.20;;;;;;;21.16;99.13;101251.94;5236185;28;20761;-70
2023/06/30 10:14:16;;;;;;;5.47;1.50;;;;;;;21.16;100.00;101251.94;5234912;28;20381;-71
2023/06/30 10:16:48;;;;;;;3.67;1.30;;;;;;;21.29;100.00;101235.94;5235227;28;20026;-70
2023/06/30 10:19:20;;;;;;;6.43;1.50;;;;;;;21.32;97.92;101241.03;5233477;28;20036;-70
2023/06/30 10:21:52;;;;;;;5.03;1.88;;;;;;;21.39;100.00;101243.84;5229626;28;20021;-70
2023/06/30 10:24:26;;;;;;;4.22;1.40;;;;;;;21.45;100.00;101247.75;5224183;28;20261;-71
2023/06/30 10:27:01;;;;;;;5.40;1.33;;;;;;;21.44;100.00;101243.34;5231245;28;20020;-70
2023/06/30 10:29:33;;;;;;;4.22;1.50;;;;;;;21.52;100.00;101240.59;5224924;28;20014;-70
2023/06/30 10:32:05;;;;;;;5.03;1.85;;;;;;;21.52;100.00;101233.28;5239946;28;20029;-70
2023/06/30 10:34:37;;;;;;;3.47;1.50;;;;;;;21.54;100.00;101224.97;5237061;28;20157;-70
2023/06/30 10:37:09;;;;;;;6.68;1.45;;;;;;;21.58;96.47;101231.72;5238281;28;20144;-70
2023/06/30 10:39:43;;;;;;;4.35;1.55;;;;;;;21.81;100.00;101236.31;5232972;28;20045;-70
2023/06/30 10:42:16;;;;;;;4.78;1.48;;;;;;;21.71;100.00;101233.84;5231002;28;20116;-70
2023/06/30 10:44:48;;;;;;;4.55;1.40;;;;;;;21.69;96.41;101225.03;5237373;28;20032;-70
2023/06/30 10:47:25;;;;;;;5.85;1.65;;;;;;;21.73;95.18;101227.19;5225054;28;20037;-70
2023/06/30 10:49:56;;;;;;;3.55;1.02;;;;;;;21.67;97.10;101218.91;5235866;28;20025;-70
2023/06/30 10:52:30;;;;;;;5.63;1.42;;;;;;;21.79;97.03;101216.63;5238684;28;20040;-70
2023/06/30 10:55:06;;;;;;;3.78;1.30;;;;;;;21.76;93.33;101214.28;5225014;28;20415;-70
2023/06/30 10:57:38;;;;;;;4.40;1.77;;;;;;;21.76;89.98;101208.84;5223497;28;20383;-70
2023/06/30 11:00:11;;;;;;;4.15;1.20;;;;;;;21.80;92.01;101207.44;5239005;28;20018;-70
2023/06/30 11:02:49;;;;;;;5.57;1.42;;;;;;;21.73;96.78;101204.63;5233363;28;20068;-70
2023/06/30 11:05:29;;;;;;;3.70;1.30;;;;;;;21.77;99.91;101214.09;5226822;28;20030;-70
2023/06/30 11:08:07;;;;;;;3.88;1.45;;;;;;;21.81;97.22;101204.53;5235874;28;20947;-70
2023/06/30 11:10:45;;;;;;;7.03;1.83;;;;;;;21.90;100.00;101199.91;5236182;28;20032;-70
2023/06/30 11:13:36;;;;;;;3.30;1.30;;;;;;;21.97;100.00;101197.28;5232596;28;20034;-70
2023/06/30 11:16:08;;;;;;;4.07;1.40;;;;;;;21.87;97.77;101201.09;5242042;28;20178;-70
2023/06/30 11:18:39;;;;;;;6.20;1.40;;;;;;;22.02;100.00;101201.13;5240318;28;20157;-71
2023/06/30 11:21:11;;;;;;;3.42;1.23;;;;;;;22.11;97.48;101202.75;5256202;28;20484;-70
2023/06/30 11:23:43;;;;;;;4.32;1.48;;;;;;;22.08;99.99;101202.28;5235159;28;20033;-70
2023/06/30 11:26:17;;;;;;;4.60;1.80;;;;;;;22.06;98.30;101205.16;5234438;28;20026;-70
2023/06/30 11:28:48;;;;;;;5.03;1.83;;;;;;;22.09;93.43;101193.94;5228431;28;20052;-71
2023/06/30 11:31:20;;;;;;;6.03;2.00;;;;;;;22.08;96.47;101203.09;5231883;28;20030;-70
2023/06/30 11:33:53;;;;;;;4.47;1.88;;;;;;;22.30;99.00;101193.25;5238824;28;20029;-71
2023/06/30 11:36:29;;;;;;;4.23;1.70;;;;;;;22.43;98.56;101192.59;5229026;28;20029;-70
2023/06/30 11:39:01;;;;;;;5.13;2.10;;;;;;;22.56;96.69;101197.38;5227285;28;20304;-71
2023/06/30 11:41:33;;;;;;;4.68;1.98;;;;;;;22.57;95.37;101193.63;5242680;28;20029;-70